Overseas Los Angeles — WABS — position and weather

sailwx.info

Track history (hours):
 
Tides and Currents Weather Stations Pressure Air Temp Water Temp Dewpoint Dewpoint Depression Visibility Wind Speed Wind Dir Waves Ship Positions

Overseas Los Angeles

Owner: ASC Leasing III, Inc., KENNETT SQUARE, PA. More information available from US FCC via Universal Licensing System and Coast Guard Vessel Documentation Center.

Last reported at 2018-Feb-24 21:57 UTC. Time now 2018-Feb-24 22:20 UTC.
Position N 49°18' W 122°57'.

Length 183 m; draft 9.3 m.

Type: Tanker. MMSI: 367134000.

Date/timePositionNaut miles runAvg speedWind from/ knotsBaromVisibWave heightAir tempDewpointWater temp
2018-Feb-24 21:57N 49°18' W 122°57'0 0.0
2018-Feb-24 21:24N 49°18' W 122°57'0 0.0
2018-Feb-24 21:00N 49°18' W 122°57'0 0.1
2018-Feb-24 20:31N 49°18' W 122°57'2 2.9
2018-Feb-24 19:59N 49°18' W 122°59'3 5.5
2018-Feb-24 19:30N 49°18' W 123°03'2 4.8
2018-Feb-24 19:01N 49°18' W 123°07'4 7.3
2018-Feb-24 18:30N 49°19' W 123°13'2 3.3
2018-Feb-24 17:55N 49°17' W 123°12'0 0.1
2018-Feb-24 17:28N 49°17' W 123°11'0 0.0
2018-Feb-24 16:55N 49°17' W 123°11'0 0.0
2018-Feb-24 16:25N 49°17' W 123°11'0 0.1
2018-Feb-24 15:52N 49°17' W 123°11'0 0.0
2018-Feb-24 15:28N 49°17' W 123°11'0 0.0
2018-Feb-24 14:55N 49°17' W 123°11'0 0.1
2018-Feb-24 14:28N 49°17' W 123°12'0 0.0
2018-Feb-24 13:58N 49°17' W 123°12'0 0.0
2018-Feb-24 13:28N 49°17' W 123°12'0 0.1
2018-Feb-24 12:58N 49°17' W 123°12'0 0.2
2018-Feb-24 12:28N 49°17' W 123°12'0 0.2
2018-Feb-24 11:58N 49°17' W 123°12'0 0.0
2018-Feb-24 11:28N 49°17' W 123°12'0 0.1
2018-Feb-24 10:58N 49°17' W 123°12'0 0.0
2018-Feb-24 10:28N 49°17' W 123°12'0 0.0
2018-Feb-24 09:58N 49°17' W 123°12'0 0.0
2018-Feb-24 09:28N 49°17' W 123°12'0 0.0
2018-Feb-24 08:58N 49°17' W 123°12'0 0.0
2018-Feb-24 08:28N 49°17' W 123°12'0 0.0
2018-Feb-24 07:58N 49°17' W 123°12'0 0.0
2018-Feb-24 07:28N 49°17' W 123°12'0 0.0
2018-Feb-24 06:55N 49°17' W 123°12'0 0.0
2018-Feb-24 06:28N 49°17' W 123°12'0 0.0
2018-Feb-24 05:58N 49°17' W 123°12'0 0.1
2018-Feb-24 05:28N 49°17' W 123°12'0 0.0
2018-Feb-24 04:58N 49°17' W 123°12'0 0.0
2018-Feb-24 04:28N 49°17' W 123°12'0 0.0
2018-Feb-24 04:00N 49°17' W 123°12'0 0.0
2018-Feb-24 03:29N 49°17' W 123°12'0 0.1
2018-Feb-24 03:00N 49°17' W 123°12'0 0.0
2018-Feb-24 02:30N 49°17' W 123°12'0 0.0
2018-Feb-24 02:00N 49°17' W 123°12'0 0.2
2018-Feb-24 01:30N 49°17' W 123°12'1 2.3
2018-Feb-24 01:00N 49°17' W 123°13'4 7.1
2018-Feb-24 00:30N 49°16' W 123°18'613.0
2018-Feb-24 00:00N 49°10' W 123°20'713.9
2018-Feb-23 23:30N 49°03' W 123°19'713.1
2018-Feb-23 22:58N 48°58' W 123°12'612.2
2018-Feb-23 22:30N 48°55' W 123°05'612.2
2018-Feb-23 21:59N 48°53' W 122°56'612.0
2018-Feb-23 21:28N 48°52' W 122°47'1 0.0
2018-Feb-22 21:04N 48°52' W 122°46'0 0.6
2018-Feb-22 21:00N 48°52' W 122°46'2 1.3
2018-Feb-22 19:38N 48°50' W 122°44'1 2.2
2018-Feb-22 19:20N 48°50' W 122°44'1 3.2
2018-Feb-22 19:00N 48°49' W 122°45'4 8.4
2018-Feb-22 18:29N 48°44' W 122°45'510.3
2018-Feb-22 18:00N 48°40' W 122°41'510.3
2018-Feb-22 17:30N 48°37' W 122°35'2 3.4
2018-Feb-22 16:58N 48°36' W 122°33'0 0.1
2018-Feb-22 16:22N 48°36' W 122°33'0 0.2
2018-Feb-22 15:52N 48°36' W 122°33'0 0.1
2018-Feb-22 15:22N 48°36' W 122°33'0 0.1
2018-Feb-22 14:49N 48°36' W 122°33'0 0.1
2018-Feb-22 14:19N 48°36' W 122°33'0 0.1
2018-Feb-22 13:46N 48°36' W 122°33'0 0.0
2018-Feb-22 12:52N 48°36' W 122°33'0 0.0
2018-Feb-22 12:28N 48°36' W 122°33'0 0.0
2018-Feb-22 11:58N 48°36' W 122°33'0 0.0
2018-Feb-22 11:28N 48°36' W 122°33'0 0.0
2018-Feb-22 10:46N 48°36' W 122°33'0 0.1
2018-Feb-22 10:16N 48°36' W 122°33'0 0.0
2018-Feb-22 09:58N 48°36' W 122°33'0 0.0
2018-Feb-22 09:22N 48°36' W 122°33'0 0.0
2018-Feb-22 08:58N 48°36' W 122°33'0 0.0
2018-Feb-22 08:22N 48°36' W 122°33'0 0.0
2018-Feb-22 07:01N 48°36' W 122°32'0 0.1
2018-Feb-22 06:58N 48°36' W 122°32'0 0.1
2018-Feb-22 06:28N 48°36' W 122°32'0 0.2
2018-Feb-22 05:55N 48°36' W 122°33'0 0.2
2018-Feb-22 05:25N 48°36' W 122°33'0 0.0
2018-Feb-22 04:58N 48°36' W 122°33'0 0.0
2018-Feb-22 04:28N 48°36' W 122°33'0 0.1
2018-Feb-22 03:58N 48°36' W 122°33'0 0.1
2018-Feb-22 03:25N 48°36' W 122°33'0 0.0
2018-Feb-22 02:31N 48°36' W 122°33'0 0.1
2018-Feb-22 02:28N 48°36' W 122°33'0 0.0
2018-Feb-22 01:52N 48°36' W 122°33'0 0.0
2018-Feb-22 01:19N 48°36' W 122°33'0 0.0
2018-Feb-22 00:55N 48°36' W 122°33'0 0.0
2018-Feb-22 00:25N 48°36' W 122°33'0 0.0
2018-Feb-21 23:55N 48°36' W 122°33'0 0.1
2018-Feb-21 23:28N 48°36' W 122°33'0 0.1
2018-Feb-21 22:58N 48°36' W 122°33'0 0.0
2018-Feb-21 22:25N 48°36' W 122°33'0 0.0
2018-Feb-21 21:55N 48°36' W 122°33'0 0.1
2018-Feb-21 21:28N 48°36' W 122°33'0 0.0
2018-Feb-21 20:58N 48°36' W 122°33'0 0.0
2018-Feb-21 20:28N 48°36' W 122°33'0 0.0
2018-Feb-21 19:55N 48°36' W 122°33'0 0.0
2018-Feb-21 19:22N 48°36' W 122°33'0 0.0
2018-Feb-21 18:58N 48°36' W 122°33'0 0.0
2018-Feb-21 18:28N 48°36' W 122°33'0 0.0
2018-Feb-21 16:58N 48°36' W 122°33'0 0.0
2018-Feb-21 16:28N 48°36' W 122°33'0 0.0
2018-Feb-21 15:52N 48°36' W 122°33'0 0.1
2018-Feb-21 15:28N 48°36' W 122°33'0 0.0
2018-Feb-21 14:58N 48°36' W 122°33'0 0.1
2018-Feb-21 14:28N 48°36' W 122°33'0 0.1
2018-Feb-21 13:58N 48°36' W 122°33'0 0.2
2018-Feb-21 13:28N 48°36' W 122°33'0 0.2
2018-Feb-21 12:58N 48°36' W 122°32'0 0.1
2018-Feb-21 12:28N 48°36' W 122°32'0 0.0
2018-Feb-21 11:58N 48°36' W 122°32'0 0.0
2018-Feb-21 11:28N 48°36' W 122°32'0 0.0
2018-Feb-21 10:58N 48°36' W 122°32'0 0.0
2018-Feb-21 10:28N 48°36' W 122°32'0 0.1
2018-Feb-21 09:58N 48°36' W 122°33'0 0.0
2018-Feb-21 09:28N 48°36' W 122°33'0 0.1
2018-Feb-21 08:58N 48°36' W 122°33'0 0.0
2018-Feb-21 08:28N 48°36' W 122°33'0 0.0
2018-Feb-21 07:55N 48°36' W 122°33'0 0.0
2018-Feb-21 07:22N 48°36' W 122°33'0 0.0
2018-Feb-21 06:58N 48°36' W 122°33'0 0.0
2018-Feb-21 06:28N 48°36' W 122°33'0 0.1
2018-Feb-21 05:58N 48°36' W 122°33'0 0.0
2018-Feb-21 05:28N 48°36' W 122°33'0 0.0
2018-Feb-21 04:58N 48°36' W 122°33'0 0.1
2018-Feb-21 04:16N 48°36' W 122°33'0 0.1
2018-Feb-21 03:58N 48°36' W 122°33'0 0.0
2018-Feb-21 03:28N 48°36' W 122°33'0 0.0
2018-Feb-21 02:58N 48°36' W 122°33'0 0.0
2018-Feb-21 02:28N 48°36' W 122°33'0 0.0
2018-Feb-21 01:58N 48°36' W 122°33'0 0.1
2018-Feb-21 01:28N 48°36' W 122°33'0 0.0
2018-Feb-21 00:58N 48°36' W 122°33'0 0.0
2018-Feb-21 00:28N 48°36' W 122°33'0 0.0
2018-Feb-20 23:55N 48°36' W 122°33'0 0.0
2018-Feb-20 23:28N 48°36' W 122°33'0 0.0
2018-Feb-20 22:58N 48°36' W 122°33'0 0.0
2018-Feb-20 22:28N 48°36' W 122°33'0 0.0
2018-Feb-20 21:55N 48°36' W 122°33'0 0.1
2018-Feb-20 21:16N 48°36' W 122°33'0 0.0
2018-Feb-20 20:52N 48°36' W 122°33'0 0.0
2018-Feb-20 20:25N 48°36' W 122°33'2 4.2
2018-Feb-20 20:00N 48°36' W 122°30'213.0 340 / 61023.210.8 -0.0-14.9
2018-Feb-20 19:52N 48°36' W 122°33'0 0.0
2018-Feb-20 19:22N 48°36' W 122°33'0 0.0
2018-Feb-20 18:58N 48°36' W 122°33'0 0.0
2018-Feb-20 18:28N 48°36' W 122°33'0 0.0
2018-Feb-20 17:55N 48°36' W 122°33'0 0.0
2018-Feb-20 17:25N 48°36' W 122°33'0 0.1
2018-Feb-20 16:58N 48°36' W 122°33'0 0.2
2018-Feb-20 16:28N 48°36' W 122°33'0 0.1
2018-Feb-20 15:58N 48°36' W 122°33'0 0.0
2018-Feb-20 15:28N 48°36' W 122°33'0 0.0
2018-Feb-20 14:55N 48°36' W 122°33'0 0.1
2018-Feb-20 14:28N 48°36' W 122°33'0 0.0
2018-Feb-20 13:58N 48°36' W 122°33'0 0.0
2018-Feb-20 13:28N 48°36' W 122°33'0 0.0
2018-Feb-20 12:58N 48°36' W 122°33'0 0.0
2018-Feb-20 12:28N 48°36' W 122°33'0 0.0
2018-Feb-20 11:49N 48°36' W 122°33'0 0.0
2018-Feb-20 11:28N 48°36' W 122°33'0 0.0
2018-Feb-20 10:52N 48°36' W 122°33'0 0.0
2018-Feb-20 10:28N 48°36' W 122°33'0 0.0
2018-Feb-20 09:58N 48°36' W 122°33'0 0.0
2018-Feb-20 09:25N 48°36' W 122°33'0 0.0
2018-Feb-20 08:58N 48°36' W 122°33'0 0.2
2018-Feb-20 08:23N 48°36' W 122°33'2 4.9
2018-Feb-20 08:00N 48°37' W 122°35'4 7.9
2018-Feb-20 07:30N 48°34' W 122°40'4 8.8
2018-Feb-20 07:00N 48°31' W 122°43'4 8.9
2018-Feb-20 06:30N 48°26' W 122°46'611.1
2018-Feb-20 06:00N 48°22' W 122°51'612.8
2018-Feb-20 05:30N 48°19' W 122°59'3812.1
2018-Feb-20 02:22N 48°13' W 123°56'614.8
2018-Feb-20 02:00N 48°16' W 124°04'714.4
2018-Feb-20 01:30N 48°19' W 124°13'714.6
2018-Feb-20 01:00N 48°22' W 124°23'714.6
2018-Feb-20 00:30N 48°25' W 124°33'714.5
2018-Feb-20 00:00N 48°28' W 124°43'714.5
2018-Feb-19 23:30N 48°28' W 124°54'714.3
2018-Feb-19 23:00N 48°25' W 125°03'814.7
2018-Feb-19 22:29N 48°19' W 125°10'814.9
2018-Feb-19 21:59N 48°13' W 125°17'9210.7
2018-Feb-19 13:23N 46°41' W 125°27'411.5
2018-Feb-19 13:00N 46°39' W 125°21'611.3
2018-Feb-19 12:30N 46°36' W 125°14'510.6
2018-Feb-19 12:00N 46°33' W 125°07'1310.7
2018-Feb-19 10:49N 46°27' W 124°51'311.1
2018-Feb-19 10:30N 46°26' W 124°47'611.0
2018-Feb-19 10:00N 46°24' W 124°39'1014.1
2018-Feb-19 09:19N 46°19' W 124°27'1 4.8
2018-Feb-19 09:00N 46°18' W 124°25'611.7
2018-Feb-19 08:30N 46°15' W 124°18'6 8.0
2018-Feb-19 07:42N 46°13' W 124°09'2 9.4
2018-Feb-19 07:30N 46°14' W 124°07'5 9.5
2018-Feb-19 06:57N 46°14' W 123°60'612.5
2018-Feb-19 06:30N 46°12' W 123°53'5 9.5
2018-Feb-19 06:00N 46°13' W 123°46'1115.3
2018-Feb-19 05:18N 46°16' W 123°31'413.9
2018-Feb-19 05:01N 46°14' W 123°26'712.6
2018-Feb-19 04:29N 46°09' W 123°21'714.9
2018-Feb-19 04:00N 46°11' W 123°11'714.5
2018-Feb-19 03:30N 46°08' W 123°01'612.6
2018-Feb-19 03:00N 46°05' W 122°54'611.1
2018-Feb-19 02:30N 45°60' W 122°51'612.9
2018-Feb-19 02:01N 45°54' W 122°48'713.2
2018-Feb-19 01:30N 45°47' W 122°46'713.9
2018-Feb-19 01:00N 45°40' W 122°46'4 8.5
2018-Feb-19 00:30N 45°36' W 122°47'0 0.4
2018-Feb-18 23:59N 45°36' W 122°47'0 0.0
2018-Feb-18 23:26N 45°36' W 122°47'0 0.0
2018-Feb-18 22:59N 45°36' W 122°47'0 0.0
2018-Feb-18 22:29N 45°36' W 122°47'0 0.0
2018-Feb-18 21:56N 45°36' W 122°47'0 0.0
2018-Feb-18 21:23N 45°36' W 122°47'0 0.0
2018-Feb-18 20:53N 45°36' W 122°47'0 0.0
2018-Feb-18 20:29N 45°36' W 122°47'0 0.0
2018-Feb-18 19:59N 45°36' W 122°47'0 0.0
2018-Feb-18 19:14N 45°36' W 122°47'0 0.0
2018-Feb-18 18:50N 45°36' W 122°47'0 0.0
2018-Feb-18 18:14N 45°36' W 122°47'0 0.0
2018-Feb-18 17:59N 45°36' W 122°47'0 0.0
2018-Feb-18 17:29N 45°36' W 122°47'0 0.0
2018-Feb-18 16:56N 45°36' W 122°47'0 0.0
2018-Feb-18 16:23N 45°36' W 122°47'0 0.0
2018-Feb-18 15:50N 45°36' W 122°47'0 0.0
2018-Feb-18 15:29N 45°36' W 122°47'0 0.0
2018-Feb-18 14:59N 45°36' W 122°47'0 0.0
2018-Feb-18 14:29N 45°36' W 122°47'0 0.0
2018-Feb-18 13:59N 45°36' W 122°47'0 0.0
2018-Feb-18 13:29N 45°36' W 122°47'0 0.0
2018-Feb-18 12:59N 45°36' W 122°47'0 0.0
2018-Feb-18 12:26N 45°36' W 122°47'0 0.0
2018-Feb-18 11:53N 45°36' W 122°47'0 0.0
2018-Feb-18 11:17N 45°36' W 122°47'0 0.0
2018-Feb-18 10:59N 45°36' W 122°47'0 0.0
2018-Feb-18 10:17N 45°36' W 122°47'0 0.0
2018-Feb-18 09:38N 45°36' W 122°47'0 0.0
2018-Feb-18 09:20N 45°36' W 122°47'0 0.0
2018-Feb-18 08:59N 45°36' W 122°47'0 0.0
2018-Feb-18 08:29N 45°36' W 122°47'0 0.0
2018-Feb-18 07:59N 45°36' W 122°47'0 0.0
2018-Feb-18 07:29N 45°36' W 122°47'0 0.0
2018-Feb-18 06:56N 45°36' W 122°47'0 0.0
2018-Feb-18 06:23N 45°36' W 122°47'0 0.0
2018-Feb-18 05:59N 45°36' W 122°47'0 0.0
2018-Feb-18 05:29N 45°36' W 122°47'0 0.0
2018-Feb-18 04:59N 45°36' W 122°47'0 0.0
2018-Feb-18 04:23N 45°36' W 122°47'0 0.0
2018-Feb-18 03:56N 45°36' W 122°47'0 0.0
2018-Feb-18 03:29N 45°36' W 122°47'0 0.0
2018-Feb-18 02:59N 45°36' W 122°47'0 0.0
2018-Feb-18 02:29N 45°36' W 122°47'0 0.0
2018-Feb-18 01:59N 45°36' W 122°47'0 0.0
2018-Feb-18 01:29N 45°36' W 122°47'0 0.0
2018-Feb-18 00:53N 45°36' W 122°47'0 0.0
2018-Feb-17 23:47N 45°36' W 122°47'0 0.0
2018-Feb-17 23:23N 45°36' W 122°47'0 0.0
2018-Feb-17 22:59N 45°36' W 122°47'0 0.0
2018-Feb-17 22:29N 45°36' W 122°47'0 0.0
2018-Feb-17 21:56N 45°36' W 122°47'0 0.0
2018-Feb-17 21:29N 45°36' W 122°47'0 0.0
2018-Feb-17 20:59N 45°36' W 122°47'0 0.0
2018-Feb-17 20:17N 45°36' W 122°47'0 0.0
2018-Feb-17 19:53N 45°36' W 122°47'0 0.0
2018-Feb-17 19:23N 45°36' W 122°47'0 0.0
2018-Feb-17 18:32N 45°36' W 122°47'0 0.1
2018-Feb-17 18:29N 45°36' W 122°47'0 0.0
2018-Feb-17 18:00N 45°36' W 122°47'2 3.9
2018-Feb-17 17:30N 45°34' W 122°45'0 0.8
2018-Feb-17 16:57N 45°34' W 122°44'0 0.0
2018-Feb-17 16:27N 45°34' W 122°44'0 0.0
2018-Feb-17 16:00N 45°34' W 122°44'0 0.0
2018-Feb-17 15:30N 45°34' W 122°44'0 0.0
2018-Feb-17 15:00N 45°34' W 122°44'0 0.0
2018-Feb-17 14:30N 45°34' W 122°44'0 0.0
2018-Feb-17 14:00N 45°34' W 122°44'0 0.0
2018-Feb-17 13:27N 45°34' W 122°44'0 0.0
2018-Feb-17 10:22N 45°34' W 122°44'0 0.0
2018-Feb-17 10:00N 45°34' W 122°44'0 0.0
2018-Feb-17 09:30N 45°34' W 122°44'0 0.0
2018-Feb-17 08:54N 45°34' W 122°44'0 0.0
2018-Feb-17 08:27N 45°34' W 122°44'0 0.0
2018-Feb-17 08:00N 45°34' W 122°44'0 0.0
2018-Feb-17 07:24N 45°34' W 122°44'0 0.0
2018-Feb-17 07:00N 45°34' W 122°44'0 0.0
2018-Feb-17 06:30N 45°34' W 122°44'0 0.0
2018-Feb-17 05:54N 45°34' W 122°44'0 0.0
2018-Feb-17 05:30N 45°34' W 122°44'0 0.0
2018-Feb-17 04:51N 45°34' W 122°44'0 0.0
2018-Feb-17 03:06N 45°34' W 122°44'0 0.0
2018-Feb-17 03:00N 45°34' W 122°44'0 0.0
2018-Feb-17 02:24N 45°34' W 122°44'0 0.0
2018-Feb-17 01:57N 45°34' W 122°44'0 0.0
2018-Feb-17 01:30N 45°34' W 122°44'0 0.0
2018-Feb-17 00:54N 45°34' W 122°44'0 0.0
2018-Feb-17 00:12N 45°34' W 122°44'0 0.0
2018-Feb-17 00:00N 45°34' W 122°44'0 0.0
2018-Feb-16 23:27N 45°34' W 122°44'0 0.0
2018-Feb-16 23:00N 45°34' W 122°44'0 0.0
2018-Feb-16 22:30N 45°34' W 122°44'0 0.2
2018-Feb-16 22:00N 45°34' W 122°44'2 3.6
2018-Feb-16 21:30N 45°35' W 122°46'4 7.3
2018-Feb-16 20:54N 45°40' W 122°46'4 9.0
2018-Feb-16 20:30N 45°43' W 122°46'510.9
2018-Feb-16 20:00N 45°49' W 122°48'6 9.7
2018-Feb-16 19:24N 45°54' W 122°48'410.2
2018-Feb-16 19:00N 45°58' W 122°50'5 9.5
2018-Feb-16 18:30N 46°03' W 122°53'5 9.1
2018-Feb-16 17:59N 46°06' W 122°57'510.1
2018-Feb-16 17:31N 46°09' W 123°03'511.0
2018-Feb-16 17:00N 46°11' W 123°10'910.7
2018-Feb-16 16:11N 46°09' W 123°22'3 9.1
2018-Feb-16 15:53N 46°11' W 123°25'410.5
2018-Feb-16 15:30N 46°15' W 123°26'510.2
2018-Feb-16 15:00N 46°15' W 123°33'611.3
2018-Feb-16 14:30N 46°15' W 123°41'611.2
2018-Feb-16 14:01N 46°12' W 123°48'4 8.8
2018-Feb-16 13:30N 46°11' W 123°55'510.3
2018-Feb-16 13:00N 46°15' W 124°00'5 9.2
2018-Feb-16 12:30N 46°14' W 124°07'7 9.6
2018-Feb-16 11:47N 46°12' W 124°17'1 4.2
2018-Feb-16 11:30N 46°13' W 124°18'612.7
2018-Feb-16 11:00N 46°14' W 124°27'714.2
2018-Feb-16 10:30N 46°16' W 124°37'714.3
2018-Feb-16 10:00N 46°18' W 124°47'1314.0
2018-Feb-16 09:03N 46°22' W 125°06'113.6
2018-Feb-16 09:00N 46°22' W 125°06'6209730.2
2018-Feb-16 00:30N 14°29' E 120°44'61744241.1
2018-Feb-15 23:03N 48°09' W 125°27'514.3
2018-Feb-15 22:40N 48°14' W 125°23'414.0
2018-Feb-15 22:25N 48°17' W 125°20'713.8
2018-Feb-15 21:55N 48°23' W 125°16'613.7
2018-Feb-15 21:30N 48°29' W 125°12'611.6
2018-Feb-15 21:00N 48°31' W 125°04'713.4
2018-Feb-15 20:30N 48°30' W 124°53'714.1
2018-Feb-15 20:00N 48°30' W 124°43'714.3
2018-Feb-15 19:30N 48°27' W 124°33'714.9
2018-Feb-15 19:00N 48°24' W 124°23'815.3
2018-Feb-15 18:30N 48°22' W 124°12'815.4
2018-Feb-15 17:59N 48°19' W 124°01'815.3
2018-Feb-15 17:26N 48°16' W 123°48'1913.8
2018-Feb-15 16:05N 48°08' W 123°23'312.5
2018-Feb-15 15:50N 48°11' W 123°20'514.8
2018-Feb-15 15:29N 48°15' W 123°15'714.2
2018-Feb-15 15:00N 48°21' W 123°11'713.1
2018-Feb-15 14:30N 48°28' W 123°13'5 9.9
2018-Feb-15 14:00N 48°33' W 123°13'5 9.2
2018-Feb-15 13:30N 48°37' W 123°15'4 8.4
2018-Feb-15 13:00N 48°41' W 123°15'4 7.8
2018-Feb-15 12:30N 48°43' W 123°11'4 7.9
2018-Feb-15 12:00N 48°45' W 123°05'4 8.2
2018-Feb-15 11:30N 48°47' W 123°00'5 9.5
2018-Feb-15 11:00N 48°50' W 122°55'510.2
2018-Feb-15 10:30N 48°52' W 122°47'  
Track history (hours):
 
Tides and Currents Weather Stations Pressure Air Temp Water Temp Dewpoint Dewpoint Depression Visibility Wind Speed Wind Dir Waves Ship Positions

Overseas Los Angeles

Owner: ASC Leasing III, Inc., KENNETT SQUARE, PA. More information available from US FCC via Universal Licensing System and Coast Guard Vessel Documentation Center.

Last reported at 2018-Feb-24 21:57 UTC. Time now 2018-Feb-24 22:20 UTC.
Position N 49°18' W 122°57'.

Length 183 m; draft 9.3 m.

Type: Tanker. MMSI: 367134000.

Date/timePositionNaut miles runAvg speedWind from/ knotsBaromVisibWave heightAir tempDewpointWater temp
2018-Feb-24 21:57N 49°18' W 122°57'0 0.0
2018-Feb-24 21:24N 49°18' W 122°57'0 0.0
2018-Feb-24 21:00N 49°18' W 122°57'0 0.1
2018-Feb-24 20:31N 49°18' W 122°57'2 2.9
2018-Feb-24 19:59N 49°18' W 122°59'3 5.5
2018-Feb-24 19:30N 49°18' W 123°03'2 4.8
2018-Feb-24 19:01N 49°18' W 123°07'4 7.3
2018-Feb-24 18:30N 49°19' W 123°13'2 3.3
2018-Feb-24 17:55N 49°17' W 123°12'0 0.1
2018-Feb-24 17:28N 49°17' W 123°11'0 0.0
2018-Feb-24 16:55N 49°17' W 123°11'0 0.0
2018-Feb-24 16:25N 49°17' W 123°11'0 0.1
2018-Feb-24 15:52N 49°17' W 123°11'0 0.0
2018-Feb-24 15:28N 49°17' W 123°11'0 0.0
2018-Feb-24 14:55N 49°17' W 123°11'0 0.1
2018-Feb-24 14:28N 49°17' W 123°12'0 0.0
2018-Feb-24 13:58N 49°17' W 123°12'0 0.0
2018-Feb-24 13:28N 49°17' W 123°12'0 0.1
2018-Feb-24 12:58N 49°17' W 123°12'0 0.2
2018-Feb-24 12:28N 49°17' W 123°12'0 0.2
2018-Feb-24 11:58N 49°17' W 123°12'0 0.0
2018-Feb-24 11:28N 49°17' W 123°12'0 0.1
2018-Feb-24 10:58N 49°17' W 123°12'0 0.0
2018-Feb-24 10:28N 49°17' W 123°12'0 0.0
2018-Feb-24 09:58N 49°17' W 123°12'0 0.0
2018-Feb-24 09:28N 49°17' W 123°12'0 0.0
2018-Feb-24 08:58N 49°17' W 123°12'0 0.0
2018-Feb-24 08:28N 49°17' W 123°12'0 0.0
2018-Feb-24 07:58N 49°17' W 123°12'0 0.0
2018-Feb-24 07:28N 49°17' W 123°12'0 0.0
2018-Feb-24 06:55N 49°17' W 123°12'0 0.0
2018-Feb-24 06:28N 49°17' W 123°12'0 0.0
2018-Feb-24 05:58N 49°17' W 123°12'0 0.1
2018-Feb-24 05:28N 49°17' W 123°12'0 0.0
2018-Feb-24 04:58N 49°17' W 123°12'0 0.0
2018-Feb-24 04:28N 49°17' W 123°12'0 0.0
2018-Feb-24 04:00N 49°17' W 123°12'0 0.0
2018-Feb-24 03:29N 49°17' W 123°12'0 0.1
2018-Feb-24 03:00N 49°17' W 123°12'0 0.0
2018-Feb-24 02:30N 49°17' W 123°12'0 0.0
2018-Feb-24 02:00N 49°17' W 123°12'0 0.2
2018-Feb-24 01:30N 49°17' W 123°12'1 2.3
2018-Feb-24 01:00N 49°17' W 123°13'4 7.1
2018-Feb-24 00:30N 49°16' W 123°18'613.0
2018-Feb-24 00:00N 49°10' W 123°20'713.9
2018-Feb-23 23:30N 49°03' W 123°19'713.1
2018-Feb-23 22:58N 48°58' W 123°12'612.2
2018-Feb-23 22:30N 48°55' W 123°05'612.2
2018-Feb-23 21:59N 48°53' W 122°56'612.0
2018-Feb-23 21:28N 48°52' W 122°47'1 0.0
2018-Feb-22 21:04N 48°52' W 122°46'0 0.6
2018-Feb-22 21:00N 48°52' W 122°46'2 1.3
2018-Feb-22 19:38N 48°50' W 122°44'1 2.2
2018-Feb-22 19:20N 48°50' W 122°44'1 3.2
2018-Feb-22 19:00N 48°49' W 122°45'4 8.4
2018-Feb-22 18:29N 48°44' W 122°45'510.3
2018-Feb-22 18:00N 48°40' W 122°41'510.3
2018-Feb-22 17:30N 48°37' W 122°35'2 3.4
2018-Feb-22 16:58N 48°36' W 122°33'0 0.1
2018-Feb-22 16:22N 48°36' W 122°33'0 0.2
2018-Feb-22 15:52N 48°36' W 122°33'0 0.1
2018-Feb-22 15:22N 48°36' W 122°33'0 0.1
2018-Feb-22 14:49N 48°36' W 122°33'0 0.1
2018-Feb-22 14:19N 48°36' W 122°33'0 0.1
2018-Feb-22 13:46N 48°36' W 122°33'0 0.0
2018-Feb-22 12:52N 48°36' W 122°33'0 0.0
2018-Feb-22 12:28N 48°36' W 122°33'0 0.0
2018-Feb-22 11:58N 48°36' W 122°33'0 0.0
2018-Feb-22 11:28N 48°36' W 122°33'0 0.0
2018-Feb-22 10:46N 48°36' W 122°33'0 0.1
2018-Feb-22 10:16N 48°36' W 122°33'0 0.0
2018-Feb-22 09:58N 48°36' W 122°33'0 0.0
2018-Feb-22 09:22N 48°36' W 122°33'0 0.0
2018-Feb-22 08:58N 48°36' W 122°33'0 0.0
2018-Feb-22 08:22N 48°36' W 122°33'0 0.0
2018-Feb-22 07:01N 48°36' W 122°32'0 0.1
2018-Feb-22 06:58N 48°36' W 122°32'0 0.1
2018-Feb-22 06:28N 48°36' W 122°32'0 0.2
2018-Feb-22 05:55N 48°36' W 122°33'0 0.2
2018-Feb-22 05:25N 48°36' W 122°33'0 0.0
2018-Feb-22 04:58N 48°36' W 122°33'0 0.0
2018-Feb-22 04:28N 48°36' W 122°33'0 0.1
2018-Feb-22 03:58N 48°36' W 122°33'0 0.1
2018-Feb-22 03:25N 48°36' W 122°33'0 0.0
2018-Feb-22 02:31N 48°36' W 122°33'0 0.1
2018-Feb-22 02:28N 48°36' W 122°33'0 0.0
2018-Feb-22 01:52N 48°36' W 122°33'0 0.0
2018-Feb-22 01:19N 48°36' W 122°33'0 0.0
2018-Feb-22 00:55N 48°36' W 122°33'0 0.0
2018-Feb-22 00:25N 48°36' W 122°33'0 0.0
2018-Feb-21 23:55N 48°36' W 122°33'0 0.1
2018-Feb-21 23:28N 48°36' W 122°33'0 0.1
2018-Feb-21 22:58N 48°36' W 122°33'0 0.0
2018-Feb-21 22:25N 48°36' W 122°33'0 0.0
2018-Feb-21 21:55N 48°36' W 122°33'0 0.1
2018-Feb-21 21:28N 48°36' W 122°33'0 0.0
2018-Feb-21 20:58N 48°36' W 122°33'0 0.0
2018-Feb-21 20:28N 48°36' W 122°33'0 0.0
2018-Feb-21 19:55N 48°36' W 122°33'0 0.0
2018-Feb-21 19:22N 48°36' W 122°33'0 0.0
2018-Feb-21 18:58N 48°36' W 122°33'0 0.0
2018-Feb-21 18:28N 48°36' W 122°33'0 0.0
2018-Feb-21 16:58N 48°36' W 122°33'0 0.0
2018-Feb-21 16:28N 48°36' W 122°33'0 0.0
2018-Feb-21 15:52N 48°36' W 122°33'0 0.1
2018-Feb-21 15:28N 48°36' W 122°33'0 0.0
2018-Feb-21 14:58N 48°36' W 122°33'0 0.1
2018-Feb-21 14:28N 48°36' W 122°33'0 0.1
2018-Feb-21 13:58N 48°36' W 122°33'0 0.2
2018-Feb-21 13:28N 48°36' W 122°33'0 0.2
2018-Feb-21 12:58N 48°36' W 122°32'0 0.1
2018-Feb-21 12:28N 48°36' W 122°32'0 0.0
2018-Feb-21 11:58N 48°36' W 122°32'0 0.0
2018-Feb-21 11:28N 48°36' W 122°32'0 0.0
2018-Feb-21 10:58N 48°36' W 122°32'0 0.0
2018-Feb-21 10:28N 48°36' W 122°32'0 0.1
2018-Feb-21 09:58N 48°36' W 122°33'0 0.0
2018-Feb-21 09:28N 48°36' W 122°33'0 0.1
2018-Feb-21 08:58N 48°36' W 122°33'0 0.0
2018-Feb-21 08:28N 48°36' W 122°33'0 0.0
2018-Feb-21 07:55N 48°36' W 122°33'0 0.0
2018-Feb-21 07:22N 48°36' W 122°33'0 0.0
2018-Feb-21 06:58N 48°36' W 122°33'0 0.0
2018-Feb-21 06:28N 48°36' W 122°33'0 0.1
2018-Feb-21 05:58N 48°36' W 122°33'0 0.0
2018-Feb-21 05:28N 48°36' W 122°33'0 0.0
2018-Feb-21 04:58N 48°36' W 122°33'0 0.1
2018-Feb-21 04:16N 48°36' W 122°33'0 0.1
2018-Feb-21 03:58N 48°36' W 122°33'0 0.0
2018-Feb-21 03:28N 48°36' W 122°33'0 0.0
2018-Feb-21 02:58N 48°36' W 122°33'0 0.0
2018-Feb-21 02:28N 48°36' W 122°33'0 0.0
2018-Feb-21 01:58N 48°36' W 122°33'0 0.1
2018-Feb-21 01:28N 48°36' W 122°33'0 0.0
2018-Feb-21 00:58N 48°36' W 122°33'0 0.0
2018-Feb-21 00:28N 48°36' W 122°33'0 0.0
2018-Feb-20 23:55N 48°36' W 122°33'0 0.0
2018-Feb-20 23:28N 48°36' W 122°33'0 0.0
2018-Feb-20 22:58N 48°36' W 122°33'0 0.0
2018-Feb-20 22:28N 48°36' W 122°33'0 0.0
2018-Feb-20 21:55N 48°36' W 122°33'0 0.1
2018-Feb-20 21:16N 48°36' W 122°33'0 0.0
2018-Feb-20 20:52N 48°36' W 122°33'0 0.0
2018-Feb-20 20:25N 48°36' W 122°33'2 4.2
2018-Feb-20 20:00N 48°36' W 122°30'213.0 340 / 61023.210.8 -0.0-14.9
2018-Feb-20 19:52N 48°36' W 122°33'0 0.0
2018-Feb-20 19:22N 48°36' W 122°33'0 0.0
2018-Feb-20 18:58N 48°36' W 122°33'0 0.0
2018-Feb-20 18:28N 48°36' W 122°33'0 0.0
2018-Feb-20 17:55N 48°36' W 122°33'0 0.0
2018-Feb-20 17:25N 48°36' W 122°33'0 0.1
2018-Feb-20 16:58N 48°36' W 122°33'0 0.2
2018-Feb-20 16:28N 48°36' W 122°33'0 0.1
2018-Feb-20 15:58N 48°36' W 122°33'0 0.0
2018-Feb-20 15:28N 48°36' W 122°33'0 0.0
2018-Feb-20 14:55N 48°36' W 122°33'0 0.1
2018-Feb-20 14:28N 48°36' W 122°33'0 0.0
2018-Feb-20 13:58N 48°36' W 122°33'0 0.0
2018-Feb-20 13:28N 48°36' W 122°33'0 0.0
2018-Feb-20 12:58N 48°36' W 122°33'0 0.0
2018-Feb-20 12:28N 48°36' W 122°33'0 0.0
2018-Feb-20 11:49N 48°36' W 122°33'0 0.0
2018-Feb-20 11:28N 48°36' W 122°33'0 0.0
2018-Feb-20 10:52N 48°36' W 122°33'0 0.0
2018-Feb-20 10:28N 48°36' W 122°33'0 0.0
2018-Feb-20 09:58N 48°36' W 122°33'0 0.0
2018-Feb-20 09:25N 48°36' W 122°33'0 0.0
2018-Feb-20 08:58N 48°36' W 122°33'0 0.2
2018-Feb-20 08:23N 48°36' W 122°33'2 4.9
2018-Feb-20 08:00N 48°37' W 122°35'4 7.9
2018-Feb-20 07:30N 48°34' W 122°40'4 8.8
2018-Feb-20 07:00N 48°31' W 122°43'4 8.9
2018-Feb-20 06:30N 48°26' W 122°46'611.1
2018-Feb-20 06:00N 48°22' W 122°51'612.8
2018-Feb-20 05:30N 48°19' W 122°59'3812.1
2018-Feb-20 02:22N 48°13' W 123°56'614.8
2018-Feb-20 02:00N 48°16' W 124°04'714.4
2018-Feb-20 01:30N 48°19' W 124°13'714.6
2018-Feb-20 01:00N 48°22' W 124°23'714.6
2018-Feb-20 00:30N 48°25' W 124°33'714.5
2018-Feb-20 00:00N 48°28' W 124°43'714.5
2018-Feb-19 23:30N 48°28' W 124°54'714.3
2018-Feb-19 23:00N 48°25' W 125°03'814.7
2018-Feb-19 22:29N 48°19' W 125°10'814.9
2018-Feb-19 21:59N 48°13' W 125°17'9210.7
2018-Feb-19 13:23N 46°41' W 125°27'411.5
2018-Feb-19 13:00N 46°39' W 125°21'611.3
2018-Feb-19 12:30N 46°36' W 125°14'510.6
2018-Feb-19 12:00N 46°33' W 125°07'1310.7
2018-Feb-19 10:49N 46°27' W 124°51'311.1
2018-Feb-19 10:30N 46°26' W 124°47'611.0
2018-Feb-19 10:00N 46°24' W 124°39'1014.1
2018-Feb-19 09:19N 46°19' W 124°27'1 4.8
2018-Feb-19 09:00N 46°18' W 124°25'611.7
2018-Feb-19 08:30N 46°15' W 124°18'6 8.0
2018-Feb-19 07:42N 46°13' W 124°09'2 9.4
2018-Feb-19 07:30N 46°14' W 124°07'5 9.5
2018-Feb-19 06:57N 46°14' W 123°60'612.5
2018-Feb-19 06:30N 46°12' W 123°53'5 9.5
2018-Feb-19 06:00N 46°13' W 123°46'1115.3
2018-Feb-19 05:18N 46°16' W 123°31'413.9
2018-Feb-19 05:01N 46°14' W 123°26'712.6
2018-Feb-19 04:29N 46°09' W 123°21'714.9
2018-Feb-19 04:00N 46°11' W 123°11'714.5
2018-Feb-19 03:30N 46°08' W 123°01'612.6
2018-Feb-19 03:00N 46°05' W 122°54'611.1
2018-Feb-19 02:30N 45°60' W 122°51'612.9
2018-Feb-19 02:01N 45°54' W 122°48'713.2
2018-Feb-19 01:30N 45°47' W 122°46'713.9
2018-Feb-19 01:00N 45°40' W 122°46'4 8.5
2018-Feb-19 00:30N 45°36' W 122°47'0 0.4
2018-Feb-18 23:59N 45°36' W 122°47'0 0.0
2018-Feb-18 23:26N 45°36' W 122°47'0 0.0
2018-Feb-18 22:59N 45°36' W 122°47'0 0.0
2018-Feb-18 22:29N 45°36' W 122°47'0 0.0
2018-Feb-18 21:56N 45°36' W 122°47'0 0.0
2018-Feb-18 21:23N 45°36' W 122°47'0 0.0
2018-Feb-18 20:53N 45°36' W 122°47'0 0.0
2018-Feb-18 20:29N 45°36' W 122°47'0 0.0
2018-Feb-18 19:59N 45°36' W 122°47'0 0.0
2018-Feb-18 19:14N 45°36' W 122°47'0 0.0
2018-Feb-18 18:50N 45°36' W 122°47'0 0.0
2018-Feb-18 18:14N 45°36' W 122°47'0 0.0
2018-Feb-18 17:59N 45°36' W 122°47'0 0.0
2018-Feb-18 17:29N 45°36' W 122°47'0 0.0
2018-Feb-18 16:56N 45°36' W 122°47'0 0.0
2018-Feb-18 16:23N 45°36' W 122°47'0 0.0
2018-Feb-18 15:50N 45°36' W 122°47'0 0.0
2018-Feb-18 15:29N 45°36' W 122°47'0 0.0
2018-Feb-18 14:59N 45°36' W 122°47'0 0.0
2018-Feb-18 14:29N 45°36' W 122°47'0 0.0
2018-Feb-18 13:59N 45°36' W 122°47'0 0.0
2018-Feb-18 13:29N 45°36' W 122°47'0 0.0
2018-Feb-18 12:59N 45°36' W 122°47'0 0.0
2018-Feb-18 12:26N 45°36' W 122°47'0 0.0
2018-Feb-18 11:53N 45°36' W 122°47'0 0.0
2018-Feb-18 11:17N 45°36' W 122°47'0 0.0
2018-Feb-18 10:59N 45°36' W 122°47'0 0.0
2018-Feb-18 10:17N 45°36' W 122°47'0 0.0
2018-Feb-18 09:38N 45°36' W 122°47'0 0.0
2018-Feb-18 09:20N 45°36' W 122°47'0 0.0
2018-Feb-18 08:59N 45°36' W 122°47'0 0.0
2018-Feb-18 08:29N 45°36' W 122°47'0 0.0
2018-Feb-18 07:59N 45°36' W 122°47'0 0.0
2018-Feb-18 07:29N 45°36' W 122°47'0 0.0
2018-Feb-18 06:56N 45°36' W 122°47'0 0.0
2018-Feb-18 06:23N 45°36' W 122°47'0 0.0
2018-Feb-18 05:59N 45°36' W 122°47'0 0.0
2018-Feb-18 05:29N 45°36' W 122°47'0 0.0
2018-Feb-18 04:59N 45°36' W 122°47'0 0.0
2018-Feb-18 04:23N 45°36' W 122°47'0 0.0
2018-Feb-18 03:56N 45°36' W 122°47'0 0.0
2018-Feb-18 03:29N 45°36' W 122°47'0 0.0
2018-Feb-18 02:59N 45°36' W 122°47'0 0.0
2018-Feb-18 02:29N 45°36' W 122°47'0 0.0
2018-Feb-18 01:59N 45°36' W 122°47'0 0.0
2018-Feb-18 01:29N 45°36' W 122°47'0 0.0
2018-Feb-18 00:53N 45°36' W 122°47'0 0.0
2018-Feb-17 23:47N 45°36' W 122°47'0 0.0
2018-Feb-17 23:23N 45°36' W 122°47'0 0.0
2018-Feb-17 22:59N 45°36' W 122°47'0 0.0
2018-Feb-17 22:29N 45°36' W 122°47'0 0.0
2018-Feb-17 21:56N 45°36' W 122°47'0 0.0
2018-Feb-17 21:29N 45°36' W 122°47'0 0.0
2018-Feb-17 20:59N 45°36' W 122°47'0 0.0
2018-Feb-17 20:17N 45°36' W 122°47'0 0.0
2018-Feb-17 19:53N 45°36' W 122°47'0 0.0
2018-Feb-17 19:23N 45°36' W 122°47'0 0.0
2018-Feb-17 18:32N 45°36' W 122°47'0 0.1
2018-Feb-17 18:29N 45°36' W 122°47'0 0.0
2018-Feb-17 18:00N 45°36' W 122°47'2 3.9
2018-Feb-17 17:30N 45°34' W 122°45'0 0.8
2018-Feb-17 16:57N 45°34' W 122°44'0 0.0
2018-Feb-17 16:27N 45°34' W 122°44'0 0.0
2018-Feb-17 16:00N 45°34' W 122°44'0 0.0
2018-Feb-17 15:30N 45°34' W 122°44'0 0.0
2018-Feb-17 15:00N 45°34' W 122°44'0 0.0
2018-Feb-17 14:30N 45°34' W 122°44'0 0.0
2018-Feb-17 14:00N 45°34' W 122°44'0 0.0
2018-Feb-17 13:27N 45°34' W 122°44'0 0.0
2018-Feb-17 10:22N 45°34' W 122°44'0 0.0
2018-Feb-17 10:00N 45°34' W 122°44'0 0.0
2018-Feb-17 09:30N 45°34' W 122°44'0 0.0
2018-Feb-17 08:54N 45°34' W 122°44'0 0.0
2018-Feb-17 08:27N 45°34' W 122°44'0 0.0
2018-Feb-17 08:00N 45°34' W 122°44'0 0.0
2018-Feb-17 07:24N 45°34' W 122°44'0 0.0
2018-Feb-17 07:00N 45°34' W 122°44'0 0.0
2018-Feb-17 06:30N 45°34' W 122°44'0 0.0
2018-Feb-17 05:54N 45°34' W 122°44'0 0.0
2018-Feb-17 05:30N 45°34' W 122°44'0 0.0
2018-Feb-17 04:51N 45°34' W 122°44'0 0.0
2018-Feb-17 03:06N 45°34' W 122°44'0 0.0
2018-Feb-17 03:00N 45°34' W 122°44'0 0.0
2018-Feb-17 02:24N 45°34' W 122°44'0 0.0
2018-Feb-17 01:57N 45°34' W 122°44'0 0.0
2018-Feb-17 01:30N 45°34' W 122°44'0 0.0
2018-Feb-17 00:54N 45°34' W 122°44'0 0.0
2018-Feb-17 00:12N 45°34' W 122°44'0 0.0
2018-Feb-17 00:00N 45°34' W 122°44'0 0.0
2018-Feb-16 23:27N 45°34' W 122°44'0 0.0
2018-Feb-16 23:00N 45°34' W 122°44'0 0.0
2018-Feb-16 22:30N 45°34' W 122°44'0 0.2
2018-Feb-16 22:00N 45°34' W 122°44'2 3.6
2018-Feb-16 21:30N 45°35' W 122°46'4 7.3
2018-Feb-16 20:54N 45°40' W 122°46'4 9.0
2018-Feb-16 20:30N 45°43' W 122°46'510.9
2018-Feb-16 20:00N 45°49' W 122°48'6 9.7
2018-Feb-16 19:24N 45°54' W 122°48'410.2
2018-Feb-16 19:00N 45°58' W 122°50'5 9.5
2018-Feb-16 18:30N 46°03' W 122°53'5 9.1
2018-Feb-16 17:59N 46°06' W 122°57'510.1
2018-Feb-16 17:31N 46°09' W 123°03'511.0
2018-Feb-16 17:00N 46°11' W 123°10'910.7
2018-Feb-16 16:11N 46°09' W 123°22'3 9.1
2018-Feb-16 15:53N 46°11' W 123°25'410.5
2018-Feb-16 15:30N 46°15' W 123°26'510.2
2018-Feb-16 15:00N 46°15' W 123°33'611.3
2018-Feb-16 14:30N 46°15' W 123°41'611.2
2018-Feb-16 14:01N 46°12' W 123°48'4 8.8
2018-Feb-16 13:30N 46°11' W 123°55'510.3
2018-Feb-16 13:00N 46°15' W 124°00'5 9.2
2018-Feb-16 12:30N 46°14' W 124°07'7 9.6
2018-Feb-16 11:47N 46°12' W 124°17'1 4.2
2018-Feb-16 11:30N 46°13' W 124°18'612.7
2018-Feb-16 11:00N 46°14' W 124°27'714.2
2018-Feb-16 10:30N 46°16' W 124°37'714.3
2018-Feb-16 10:00N 46°18' W 124°47'1314.0
2018-Feb-16 09:03N 46°22' W 125°06'113.6
2018-Feb-16 09:00N 46°22' W 125°06'6209730.2
2018-Feb-16 00:30N 14°29' E 120°44'61744241.1
2018-Feb-15 23:03N 48°09' W 125°27'514.3
2018-Feb-15 22:40N 48°14' W 125°23'414.0
2018-Feb-15 22:25N 48°17' W 125°20'713.8
2018-Feb-15 21:55N 48°23' W 125°16'613.7
2018-Feb-15 21:30N 48°29' W 125°12'611.6
2018-Feb-15 21:00N 48°31' W 125°04'713.4
2018-Feb-15 20:30N 48°30' W 124°53'714.1
2018-Feb-15 20:00N 48°30' W 124°43'714.3
2018-Feb-15 19:30N 48°27' W 124°33'714.9
2018-Feb-15 19:00N 48°24' W 124°23'815.3
2018-Feb-15 18:30N 48°22' W 124°12'815.4
2018-Feb-15 17:59N 48°19' W 124°01'815.3
2018-Feb-15 17:26N 48°16' W 123°48'1913.8
2018-Feb-15 16:05N 48°08' W 123°23'312.5
2018-Feb-15 15:50N 48°11' W 123°20'514.8
2018-Feb-15 15:29N 48°15' W 123°15'714.2
2018-Feb-15 15:00N 48°21' W 123°11'713.1
2018-Feb-15 14:30N 48°28' W 123°13'5 9.9
2018-Feb-15 14:00N 48°33' W 123°13'5 9.2
2018-Feb-15 13:30N 48°37' W 123°15'4 8.4
2018-Feb-15 13:00N 48°41' W 123°15'4 7.8
2018-Feb-15 12:30N 48°43' W 123°11'4 7.9
2018-Feb-15 12:00N 48°45' W 123°05'4 8.2
2018-Feb-15 11:30N 48°47' W 123°00'5 9.5
2018-Feb-15 11:00N 48°50' W 122°55'510.2
2018-Feb-15 10:30N 48°52' W 122°47'  

Dump ship's entire track history